Saint Louis, Missouri
Traffic Map
Current Weather Conditions
Saint Louis, Missouri
Clear
Clear
30°
Feels Like: 30°
Wind Chill: 30° Ceiling: Unl
Heat Index: 30° Visibility: 10mi
Dew Point: 14° Wind: 6mph
Humidity: 38% Direction: 150° (SSE)
Pressure: 30.04in Gusts: 0mph
Raw Report DataKCPS 011753Z 15005KT 10SM CLR 30/14 A3004 RMK AO2 SLP168 T03000144 10306 20211 58009 $
Traffic Incident Summary
Active as of:
Severity:
Category:
InformationThere was an issue retrieving the traffic information for this location. Please try a different location or try again shortly.
Advertisements
Track Severe Weather on mobile